Time;durP1;ratioP1;P1;durP2;ratioP2;P2;SDS_P1;SDS_P2;PMS_P1;PMS_P2;Temp;Humidity;BMP_temperature;BMP_pressure;BME280_temperature;BME280_humidity;BME280_pressure;Samples;Min_cycle;Max_cycle;Signal;HPM_P1;HPM_P2
2022/11/22 00:02:19;;;;;;;4.65;3.20;;;;;;;6.36;71.95;100760.66;5015686;28;20033;-83
2022/11/22 00:04:44;;;;;;;7.95;4.45;;;;;;;6.30;72.45;100764.25;5032312;28;20036;-83
2022/11/22 00:07:09;;;;;;;8.27;3.60;;;;;;;6.31;72.46;100776.22;5016127;28;20445;-82
2022/11/22 00:09:35;;;;;;;4.25;3.28;;;;;;;6.14;72.28;100749.31;5032223;28;20033;-82
2022/11/22 00:12:00;;;;;;;4.72;3.45;;;;;;;6.25;72.24;100767.84;5031929;28;20506;-82
2022/11/22 00:14:26;;;;;;;7.90;3.45;;;;;;;6.09;72.58;100743.44;5015413;28;20064;-82
2022/11/22 00:16:51;;;;;;;3.83;3.03;;;;;;;6.15;72.67;100762.09;5015317;28;20109;-82
2022/11/22 00:19:17;;;;;;;5.03;3.35;;;;;;;6.18;72.54;100762.00;5015296;28;20506;-82
2022/11/22 00:21:42;;;;;;;5.22;3.30;;;;;;;6.15;72.73;100758.69;5031687;28;20030;-83
2022/11/22 00:24:08;;;;;;;6.47;3.75;;;;;;;6.11;72.06;100747.69;5031903;28;20490;-82
2022/11/22 00:26:33;;;;;;;3.92;2.80;;;;;;;6.12;71.96;100758.81;5015079;28;20029;-82
2022/11/22 00:28:59;;;;;;;4.85;2.90;;;;;;;5.94;72.35;100743.00;5031644;28;20087;-82
2022/11/22 00:31:24;;;;;;;3.10;2.55;;;;;;;6.04;72.25;100772.69;5031606;28;20041;-82
2022/11/22 00:33:50;;;;;;;5.93;3.08;;;;;;;5.92;74.10;100769.63;5031772;28;20025;-82
2022/11/22 00:36:16;;;;;;;5.50;2.80;;;;;;;6.11;73.66;100769.97;5048183;28;20033;-83
2022/11/22 00:38:42;;;;;;;3.53;3.10;;;;;;;6.18;72.65;100767.16;5031431;28;20033;-82
2022/11/22 00:41:08;;;;;;;5.88;2.90;;;;;;;6.35;71.69;100768.41;5014982;28;20017;-82
2022/11/22 00:43:33;;;;;;;2.65;2.30;;;;;;;6.26;71.56;100746.38;5048109;28;20095;-82
2022/11/22 00:45:59;;;;;;;3.30;2.28;;;;;;;6.39;71.55;100776.00;5031561;28;20034;-82
2022/11/22 00:48:25;;;;;;;7.97;3.20;;;;;;;6.30;71.30;100737.72;5031406;28;20061;-83
2022/11/22 00:50:50;;;;;;;5.25;2.90;;;;;;;6.37;70.89;100751.22;5031538;28;20034;-82
2022/11/22 00:53:16;;;;;;;2.60;1.65;;;;;;;6.41;70.82;100758.81;5064744;28;20069;-82
2022/11/22 00:55:41;;;;;;;2.33;1.58;;;;;;;6.51;70.94;100769.66;5031124;28;20445;-82
2022/11/22 00:58:07;;;;;;;2.83;2.05;;;;;;;6.59;70.54;100772.84;5031330;28;20030;-82
2022/11/22 01:00:32;;;;;;;1.98;1.63;;;;;;;6.52;70.35;100748.19;5031365;28;20025;-82
2022/11/22 01:02:58;;;;;;;4.25;2.63;;;;;;;6.54;70.92;100764.41;5014858;28;20466;-82
2022/11/22 01:05:23;;;;;;;2.38;2.10;;;;;;;6.69;70.41;100778.53;5015092;28;20045;-82
2022/11/22 01:07:49;;;;;;;3.72;2.22;;;;;;;6.66;69.77;100765.75;5031123;28;20029;-82
2022/11/22 01:10:14;;;;;;;4.70;2.20;;;;;;;6.61;70.35;100777.03;5014065;28;20491;-82
2022/11/22 01:12:40;;;;;;;5.57;2.92;;;;;;;6.57;70.28;100772.00;5031107;28;20104;-82
2022/11/22 01:15:06;;;;;;;10.18;3.47;;;;;;;6.40;70.40;100735.72;5031047;28;20037;-82
2022/11/22 01:17:31;;;;;;;6.07;3.55;;;;;;;6.56;70.35;100767.75;5030649;28;20395;-82
2022/11/22 01:19:56;;;;;;;3.97;3.03;;;;;;;6.47;70.59;100761.16;5030964;28;20040;-82
2022/11/22 01:22:22;;;;;;;6.75;4.00;;;;;;;6.59;70.45;100771.09;5014366;28;20029;-82
2022/11/22 01:24:47;;;;;;;5.93;2.90;;;;;;;6.50;70.74;100776.53;5030464;28;20040;-82
2022/11/22 01:27:13;;;;;;;6.93;3.55;;;;;;;6.46;70.70;100767.19;5014337;28;20101;-83
2022/11/22 01:29:38;;;;;;;3.80;2.97;;;;;;;6.42;70.87;100755.34;5030575;28;20026;-82
2022/11/22 01:32:04;;;;;;;4.75;3.22;;;;;;;6.39;70.88;100767.41;5029922;28;20414;-82
2022/11/22 01:34:30;;;;;;;4.70;3.40;;;;;;;6.37;71.38;100777.75;4997650;28;20075;-82
2022/11/22 01:36:55;;;;;;;4.50;2.85;;;;;;;6.35;71.48;100781.25;5047076;28;20029;-83
2022/11/22 01:39:21;;;;;;;5.47;3.00;;;;;;;6.27;71.90;100771.19;5030237;28;20025;-82
2022/11/22 01:41:46;;;;;;;4.18;2.50;;;;;;;6.19;71.54;100768.84;5031781;28;20025;-82
2022/11/22 01:44:30;;;;;;;4.97;3.30;;;;;;;6.16;71.54;100752.69;5014080;28;20041;-82
2022/11/22 01:47:02;;;;;;;6.63;3.42;;;;;;;6.29;71.91;100770.28;5030197;28;20057;-82
2022/11/22 01:49:45;;;;;;;3.00;2.15;;;;;;;6.09;72.06;100734.03;5014249;28;20045;-82
2022/11/22 01:52:16;;;;;;;3.95;2.75;;;;;;;6.16;72.28;100758.66;5031515;28;20024;-83
2022/11/22 01:54:43;;;;;;;3.85;2.80;;;;;;;6.17;72.18;100739.78;4997283;28;20213;-83
2022/11/22 01:57:14;;;;;;;6.80;3.03;;;;;;;6.30;71.72;100760.84;5030151;28;20035;-82
2022/11/22 01:59:43;;;;;;;6.70;3.65;;;;;;;5.97;71.21;100722.38;5013715;28;20352;-82
2022/11/22 02:02:09;;;;;;;3.97;3.15;;;;;;;6.10;71.79;100758.00;5014049;28;20032;-82
2022/11/22 02:04:34;;;;;;;4.80;3.50;;;;;;;6.08;72.37;100755.47;5030060;28;20029;-83
2022/11/22 02:07:13;;;;;;;5.68;3.78;;;;;;;6.03;72.30;100765.03;5013790;28;20419;-82
2022/11/22 02:09:38;;;;;;;18.15;5.10;;;;;;;5.91;72.49;100747.41;5029732;28;20026;-83
2022/11/22 02:12:04;;;;;;;4.35;3.70;;;;;;;5.93;72.42;100756.75;5013589;28;20368;-83
2022/11/22 02:14:30;;;;;;;9.13;4.85;;;;;;;5.91;72.57;100763.66;5013566;28;20025;-83
2022/11/22 02:16:55;;;;;;;18.85;4.75;;;;;;;5.61;72.65;100708.81;5013231;28;20034;-82
2022/11/22 02:19:26;;;;;;;10.75;5.70;;;;;;;5.79;72.37;100735.69;5046533;28;20034;-82
2022/11/22 02:21:54;;;;;;;8.15;4.20;;;;;;;5.92;73.36;100767.06;5013048;28;20037;-82
2022/11/22 02:24:25;;;;;;;8.55;4.30;;;;;;;5.80;73.00;100739.97;5013751;28;20120;-82
2022/11/22 02:26:51;;;;;;;8.13;4.32;;;;;;;5.89;73.26;100774.78;5030296;28;20112;-82
2022/11/22 02:29:16;;;;;;;10.75;3.33;;;;;;;5.71;73.91;100756.47;5029443;28;20083;-82
2022/11/22 02:31:44;;;;;;;5.53;3.90;;;;;;;5.71;73.85;100763.31;5046098;28;20021;-82
2022/11/22 02:34:10;;;;;;;4.60;2.92;;;;;;;5.68;73.73;100768.50;5013386;28;20029;-83
2022/11/22 02:36:41;;;;;;;4.97;3.63;;;;;;;5.50;74.79;100757.00;5029457;28;20017;-82
2022/11/22 02:39:07;;;;;;;5.72;3.63;;;;;;;5.56;74.89;100768.84;5029311;28;20502;-82
2022/11/22 02:41:33;;;;;;;3.17;1.77;;;;;;;5.30;74.84;100734.41;5029344;28;20038;-82
2022/11/22 02:43:58;;;;;;;4.07;2.65;;;;;;;5.43;74.63;100753.78;5013181;28;20056;-82
2022/11/22 02:46:23;;;;;;;8.18;4.93;;;;;;;5.39;75.25;100743.59;5012734;28;20025;-83
2022/11/22 02:48:49;;;;;;;6.78;3.47;;;;;;;5.44;75.20;100742.63;5062532;28;20085;-81
2022/11/22 02:51:15;;;;;;;7.65;4.28;;;;;;;5.45;74.40;100733.19;5029196;28;20030;-82
2022/11/22 02:53:48;;;;;;;6.63;4.68;;;;;;;5.53;75.28;100740.69;5029524;28;20036;-82
2022/11/22 02:56:14;;;;;;;7.75;4.65;;;;;;;5.63;74.51;100742.97;5029463;28;20589;-82
2022/11/22 02:58:39;;;;;;;15.07;5.72;;;;;;;5.59;74.01;100743.09;5012969;28;20123;-82
2022/11/22 03:01:05;;;;;;;6.75;4.93;;;;;;;5.52;74.00;100754.41;5012763;28;20033;-82
2022/11/22 03:03:31;;;;;;;7.05;4.32;;;;;;;5.48;74.32;100754.47;5012667;28;20494;-82
2022/11/22 03:05:56;;;;;;;10.93;5.18;;;;;;;5.44;74.54;100760.59;5045477;28;20022;-82
2022/11/22 03:08:22;;;;;;;9.52;4.07;;;;;;;5.53;74.36;100761.22;5029322;28;20033;-83
2022/11/22 03:10:47;;;;;;;6.68;4.70;;;;;;;5.48;74.53;100759.59;5012778;28;20431;-82
2022/11/22 03:13:13;;;;;;;11.93;7.75;;;;;;;5.40;74.53;100756.38;5013127;28;20041;-83
2022/11/22 03:15:38;;;;;;;8.63;5.15;;;;;;;5.31;74.57;100741.25;5012701;28;20036;-81
2022/11/22 03:18:04;;;;;;;10.38;5.18;;;;;;;5.34;74.05;100746.31;5012725;28;20034;-82
2022/11/22 03:20:29;;;;;;;6.70;3.80;;;;;;;5.22;74.65;100736.34;5045406;28;20127;-82
2022/11/22 03:22:55;;;;;;;7.70;4.32;;;;;;;5.26;74.89;100737.94;5029199;28;20033;-82
2022/11/22 03:25:21;;;;;;;5.45;4.18;;;;;;;5.32;74.74;100740.38;5045775;28;20072;-82
2022/11/22 03:27:46;;;;;;;6.68;4.53;;;;;;;5.22;74.78;100733.78;5013023;28;20407;-82
2022/11/22 03:30:12;;;;;;;5.70;4.00;;;;;;;5.18;75.34;100734.72;5013009;28;20092;-81
2022/11/22 03:32:37;;;;;;;4.05;3.65;;;;;;;5.24;75.26;100739.72;5028811;28;20040;-82
2022/11/22 03:35:03;;;;;;;6.80;4.40;;;;;;;5.21;75.15;100719.28;5045212;28;20029;-82
2022/11/22 03:37:28;;;;;;;10.88;5.18;;;;;;;5.26;75.01;100732.81;5012465;28;20029;-82
2022/11/22 03:39:54;;;;;;;7.40;4.55;;;;;;;5.10;74.95;100705.88;5045333;28;20033;-82
2022/11/22 03:42:19;;;;;;;11.38;4.47;;;;;;;5.14;75.20;100712.63;5012645;28;20519;-82
2022/11/22 03:44:45;;;;;;;9.95;4.45;;;;;;;5.08;75.78;100713.59;5012461;28;20502;-82
2022/11/22 03:47:10;;;;;;;7.70;5.15;;;;;;;5.13;75.19;100736.59;5012243;28;20106;-82
2022/11/22 03:49:36;;;;;;;5.53;2.75;;;;;;;5.06;75.13;100735.03;5012196;28;20402;-82
2022/11/22 03:52:01;;;;;;;11.20;4.63;;;;;;;4.81;75.52;100722.78;5012220;28;20025;-82
2022/11/22 03:54:27;;;;;;;9.25;4.43;;;;;;;4.94;75.94;100733.63;5012747;28;20452;-82
2022/11/22 03:56:52;;;;;;;11.00;4.00;;;;;;;4.62;76.52;100677.97;5032295;28;20040;-82
2022/11/22 03:59:18;;;;;;;13.40;5.22;;;;;;;5.09;75.88;100737.53;5033581;28;20072;-82
2022/11/22 04:01:43;;;;;;;4.78;3.42;;;;;;;5.03;76.02;100724.88;5015670;28;20100;-80
2022/11/22 04:04:09;;;;;;;8.95;5.30;;;;;;;5.01;75.75;100701.81;5031803;28;20480;-81
2022/11/22 04:06:35;;;;;;;13.88;4.68;;;;;;;5.02;75.48;100707.81;5048996;28;20026;-81
2022/11/22 04:09:00;;;;;;;3.72;3.38;;;;;;;5.13;75.53;100722.03;5015943;28;20029;-81
2022/11/22 04:11:26;;;;;;;7.13;4.65;;;;;;;5.14;75.45;100728.84;5032191;28;20040;-81
2022/11/22 04:16:35;;;;;;;8.13;3.78;;;;;;;5.23;76.04;100748.31;5032118;28;20128;-80
2022/11/22 04:19:01;;;;;;;6.22;4.13;;;;;;;5.34;76.31;100735.19;5031453;28;20029;-80
2022/11/22 04:21:35;;;;;;;6.18;4.07;;;;;;;5.43;74.78;100745.22;5033196;28;20471;-80
2022/11/22 04:26:49;;;;;;;6.38;3.85;;;;;;;5.12;74.04;100704.13;5018695;28;20438;-80
2022/11/22 04:29:15;;;;;;;4.88;3.75;;;;;;;5.30;74.34;100761.78;5048473;28;20026;-80
2022/11/22 04:34:24;;;;;;;4.07;2.65;;;;;;;5.24;74.70;100765.38;5017489;28;20036;-81
2022/11/22 04:36:50;;;;;;;8.73;4.10;;;;;;;5.38;74.29;100760.72;5064984;28;20037;-80
2022/11/22 04:39:15;;;;;;;7.35;4.57;;;;;;;5.32;74.28;100760.91;5048275;28;20028;-81
2022/11/22 04:41:41;;;;;;;11.20;5.57;;;;;;;5.36;73.58;100752.22;5048193;28;20037;-80
2022/11/22 04:46:52;;;;;;;9.73;6.50;;;;;;;5.26;73.61;100776.44;5018938;28;20106;-82
2022/11/22 04:49:17;;;;;;;15.13;9.50;;;;;;;4.94;74.18;100745.59;5034572;28;20021;-82
2022/11/22 04:54:27;;;;;;;13.68;7.93;;;;;;;4.92;74.54;100780.66;5051177;28;20031;-83
2022/11/22 04:56:52;;;;;;;9.35;6.30;;;;;;;4.92;74.50;100783.22;5051457;28;20033;-82
2022/11/22 04:59:17;;;;;;;13.40;7.45;;;;;;;4.75;75.14;100773.38;5033120;28;20028;-83
2022/11/22 05:01:43;;;;;;;9.52;6.18;;;;;;;4.72;75.47;100788.81;5033943;28;20036;-83
2022/11/22 05:04:08;;;;;;;6.07;5.35;;;;;;;4.62;76.49;100800.97;5034482;28;20505;-83
2022/11/22 05:06:35;;;;;;;8.75;5.47;;;;;;;4.66;76.14;100814.59;5034791;28;20036;-83
2022/11/22 05:09:01;;;;;;;7.30;4.55;;;;;;;4.71;76.12;100811.03;5017717;28;20033;-83
2022/11/22 05:11:26;;;;;;;10.95;4.57;;;;;;;4.43;75.98;100777.50;5032769;28;20038;-83
2022/11/22 05:13:52;;;;;;;9.02;5.43;;;;;;;4.61;76.27;100805.25;5049905;28;20029;-80
2022/11/22 05:16:17;;;;;;;9.88;5.22;;;;;;;4.62;76.61;100813.78;5049823;28;20029;-81
2022/11/22 05:18:43;;;;;;;7.30;4.22;;;;;;;4.62;76.44;100806.09;5033806;28;20483;-81
2022/11/22 05:21:12;;;;;;;12.07;7.70;;;;;;;4.41;76.69;100775.81;5032461;28;20115;-81
2022/11/22 05:23:52;;;;;;;10.43;5.10;;;;;;;4.50;76.48;100791.00;5033651;28;20052;-83
2022/11/22 05:26:19;;;;;;;9.80;5.68;;;;;;;4.27;76.73;100748.78;5032683;28;20029;-82
2022/11/22 05:28:45;;;;;;;9.70;5.40;;;;;;;4.50;77.28;100803.81;5043350;28;20025;-90
2022/11/22 05:31:12;;;;;;;6.85;4.70;;;;;;;4.29;77.21;100767.53;5023801;28;20048;-85
2022/11/22 05:33:39;;;;;;;8.85;6.43;;;;;;;4.42;77.11;100782.63;5051000;28;20478;-86
2022/11/22 05:36:04;;;;;;;11.82;6.35;;;;;;;4.34;77.26;100777.69;5032576;28;20029;-80
2022/11/22 05:38:30;;;;;;;12.27;6.15;;;;;;;4.33;77.54;100796.50;5032101;28;20036;-89
2022/11/22 05:40:56;;;;;;;20.40;7.55;;;;;;;4.32;77.57;100787.94;5034390;28;20029;-86
2022/11/22 05:43:21;;;;;;;11.73;7.20;;;;;;;4.24;77.48;100776.19;5030883;28;20058;-85
2022/11/22 05:45:46;;;;;;;16.50;9.45;;;;;;;4.43;77.66;100807.41;5009840;28;20586;-85
2022/11/22 05:48:12;;;;;;;10.00;6.10;;;;;;;4.43;77.17;100795.44;5026930;28;20100;-91
2022/11/22 05:50:38;;;;;;;10.55;6.75;;;;;;;4.24;77.32;100774.47;5003729;28;20110;-84
2022/11/22 05:53:03;;;;;;;8.43;5.40;;;;;;;4.40;78.11;100800.59;5002907;28;20030;-83
2022/11/22 05:55:29;;;;;;;7.50;6.78;;;;;;;4.39;77.96;100804.03;4994031;28;20108;-94
2022/11/22 05:57:58;;;;;;;8.00;6.45;;;;;;;4.30;77.75;100789.69;4992752;28;20029;-79
2022/11/22 06:00:23;;;;;;;12.93;8.32;;;;;;;4.36;78.55;100804.09;5007148;28;20072;-88
2022/11/22 06:02:49;;;;;;;8.70;7.07;;;;;;;4.36;78.58;100808.38;4995555;28;20038;-95
2022/11/22 06:05:14;;;;;;;10.82;7.43;;;;;;;4.45;78.70;100808.19;4997292;28;20030;-90
2022/11/22 06:07:40;;;;;;;8.57;5.65;;;;;;;4.52;81.30;100797.78;4993615;28;20541;-86
2022/11/22 06:10:06;;;;;;;7.72;6.53;;;;;;;4.77;79.46;100818.59;5010505;28;20072;-87
2022/11/22 06:12:31;;;;;;;10.27;6.45;;;;;;;4.80;77.54;100823.66;4979441;28;20033;-92
2022/11/22 06:14:57;;;;;;;10.50;6.95;;;;;;;4.74;77.64;100821.22;4977841;28;20042;-87
2022/11/22 06:17:22;;;;;;;8.18;5.93;;;;;;;4.64;77.50;100814.63;4992423;28;20038;-92
2022/11/22 06:19:48;;;;;;;9.75;5.88;;;;;;;4.65;78.17;100836.81;5024697;28;20411;-87
2022/11/22 06:22:13;;;;;;;13.38;7.70;;;;;;;4.55;78.13;100817.38;5009124;28;20084;-85
2022/11/22 06:24:39;;;;;;;12.93;8.23;;;;;;;4.59;78.20;100826.69;5005366;28;20034;-86
2022/11/22 06:27:04;;;;;;;18.58;9.07;;;;;;;4.73;78.12;100839.22;4989872;28;20022;-83
2022/11/22 06:29:30;;;;;;;17.70;7.30;;;;;;;4.70;78.58;100834.97;4983472;28;20066;-81
2022/11/22 06:31:55;;;;;;;10.02;6.03;;;;;;;4.83;78.16;100845.81;5006886;28;20065;-94
2022/11/22 06:34:21;;;;;;;11.98;7.10;;;;;;;4.78;78.13;100830.53;4996747;28;20048;-84
2022/11/22 06:36:46;;;;;;;16.50;8.38;;;;;;;4.85;78.04;100839.78;4992898;28;20415;-86
2022/11/22 06:39:12;;;;;;;14.27;8.70;;;;;;;4.95;78.79;100849.84;5009088;28;20045;-92
2022/11/22 06:41:38;;;;;;;6.57;4.75;;;;;;;5.01;79.37;100862.50;5012960;28;20026;-93
2022/11/22 06:44:04;;;;;;;8.98;6.10;;;;;;;4.89;78.24;100845.69;4981414;28;20145;-92
2022/11/22 06:46:30;;;;;;;8.23;4.72;;;;;;;4.95;78.07;100858.38;5036349;28;20029;-81
2022/11/22 06:48:58;;;;;;;5.80;4.72;;;;;;;4.92;78.53;100855.88;5011857;28;20033;-92
2022/11/22 06:51:26;;;;;;;6.10;3.78;;;;;;;5.15;80.95;100842.53;5007391;28;20041;-79
2022/11/22 06:53:54;;;;;;;7.55;4.88;;;;;;;5.21;77.99;100846.66;4991326;28;20025;-82
2022/11/22 06:56:25;;;;;;;12.57;5.57;;;;;;;5.17;77.51;100838.19;5008718;28;20462;-83
2022/11/22 06:58:51;;;;;;;7.13;3.95;;;;;;;5.28;77.08;100851.63;5023135;28;20033;-79
2022/11/22 07:01:18;;;;;;;10.00;4.53;;;;;;;5.26;76.71;100839.72;4990378;28;20026;-80
2022/11/22 07:03:44;;;;;;;9.20;4.38;;;;;;;5.55;76.26;100856.97;4992941;28;20022;-86
2022/11/22 07:06:10;;;;;;;9.60;5.03;;;;;;;5.57;76.21;100860.34;4993307;28;20041;-88
2022/11/22 07:08:36;;;;;;;5.43;3.85;;;;;;;5.69;78.64;100835.22;4992799;28;20030;-92
2022/11/22 07:11:06;;;;;;;8.27;4.75;;;;;;;5.80;75.14;100858.06;4994790;28;20408;-80
2022/11/22 07:13:32;;;;;;;6.72;4.47;;;;;;;5.92;75.23;100867.19;5007554;28;20514;-89
2022/11/22 07:15:59;;;;;;;9.77;5.40;;;;;;;5.83;74.99;100850.28;5024914;28;20021;-85
2022/11/22 07:18:24;;;;;;;6.78;4.18;;;;;;;5.92;74.72;100852.63;4991661;28;20128;-81
2022/11/22 07:20:50;;;;;;;5.05;3.92;;;;;;;5.86;74.37;100827.06;5008198;28;20034;-84
2022/11/22 07:23:15;;;;;;;6.70;3.60;;;;;;;6.01;74.36;100847.25;5008621;28;20053;-87
2022/11/22 07:25:44;;;;;;;16.83;5.88;;;;;;;6.02;74.39;100843.81;5009591;28;20038;-90
2022/11/22 07:28:10;;;;;;;5.78;4.05;;;;;;;5.93;74.89;100841.47;5008176;28;20026;-85
2022/11/22 07:30:37;;;;;;;8.23;4.15;;;;;;;6.06;74.98;100843.72;5010858;28;20026;-81
2022/11/22 07:33:02;;;;;;;13.40;6.03;;;;;;;6.17;74.80;100851.97;5028162;28;20041;-83
2022/11/22 07:35:28;;;;;;;12.18;7.18;;;;;;;6.17;75.14;100836.56;5028471;28;20442;-82
2022/11/22 07:37:53;;;;;;;14.48;7.72;;;;;;;6.23;74.71;100833.84;4990082;28;20484;-83
2022/11/22 07:40:18;;;;;;;8.95;5.28;;;;;;;6.42;74.19;100853.00;5012999;28;20029;-80
2022/11/22 07:42:44;;;;;;;6.18;4.82;;;;;;;6.46;74.04;100848.59;5006893;28;20042;-81
2022/11/22 07:45:10;;;;;;;15.50;8.38;;;;;;;6.43;74.28;100841.81;4977657;28;20504;-92
2022/11/22 07:47:35;;;;;;;6.63;4.63;;;;;;;6.24;74.36;100787.53;5012463;28;20129;-88
2022/11/22 07:50:01;;;;;;;8.38;4.80;;;;;;;6.46;73.80;100820.31;5008857;28;20034;-85
2022/11/22 07:52:26;;;;;;;11.00;5.03;;;;;;;6.62;73.87;100839.56;5029083;28;20034;-95
2022/11/22 07:54:52;;;;;;;8.55;5.07;;;;;;;6.76;74.21;100841.72;4997119;28;20041;-90
2022/11/22 07:57:17;;;;;;;7.72;4.22;;;;;;;6.80;73.88;100840.75;5013660;28;20123;-95
2022/11/22 07:59:43;;;;;;;11.98;6.60;;;;;;;6.87;73.00;100824.25;4994640;28;20041;-88
2022/11/22 08:02:10;;;;;;;5.45;3.60;;;;;;;6.80;73.55;100817.63;5001924;28;20034;-83
2022/11/22 08:04:36;;;;;;;6.32;4.07;;;;;;;7.22;80.04;100832.59;5013164;28;20022;-93
2022/11/22 08:07:01;;;;;;;9.48;4.10;;;;;;;7.29;73.73;100832.38;4996077;28;20107;-89
2022/11/22 08:09:27;;;;;;;7.00;4.13;;;;;;;7.32;72.76;100837.41;4998659;28;20511;-92
2022/11/22 08:11:52;;;;;;;6.18;3.90;;;;;;;7.23;71.73;100836.88;5002453;28;20041;-92
2022/11/22 08:14:18;;;;;;;5.80;4.05;;;;;;;7.18;72.21;100845.59;5001386;28;20033;-95
2022/11/22 08:16:47;;;;;;;6.80;4.93;;;;;;;7.21;72.51;100843.78;4985938;28;20037;-94
2022/11/22 08:19:16;;;;;;;8.75;3.65;;;;;;;7.23;72.21;100837.69;5010561;28;20552;-85
2022/11/22 08:21:45;;;;;;;6.00;4.82;;;;;;;7.32;71.79;100839.16;4989292;28;20033;-83
2022/11/22 08:24:11;;;;;;;9.30;4.63;;;;;;;7.58;70.91;100828.84;4994834;28;20030;-82
2022/11/22 08:26:36;;;;;;;4.60;3.55;;;;;;;7.56;71.17;100828.03;4994735;28;20030;-80
2022/11/22 08:29:09;;;;;;;8.05;4.63;;;;;;;7.55;70.67;100785.16;4993872;28;20034;-79
2022/11/22 08:31:35;;;;;;;5.55;3.13;;;;;;;7.76;69.59;100792.16;4994618;28;20129;-82
2022/11/22 08:34:01;;;;;;;8.50;6.20;;;;;;;7.88;69.80;100790.06;5023446;28;20034;-80
2022/11/22 08:36:26;;;;;;;8.35;3.40;;;;;;;8.05;68.59;100782.56;5008228;28;20157;-83
2022/11/22 08:38:52;;;;;;;9.50;4.55;;;;;;;8.10;69.18;100788.41;5008602;28;20037;-79
2022/11/22 08:41:17;;;;;;;7.97;3.88;;;;;;;8.17;68.79;100802.75;5026625;28;20030;-81
2022/11/22 08:43:43;;;;;;;7.72;4.95;;;;;;;8.14;67.93;100777.06;4966489;28;20053;-80
2022/11/22 08:46:09;;;;;;;8.93;5.35;;;;;;;8.09;67.70;100773.84;4993806;28;20500;-79
2022/11/22 08:48:35;;;;;;;9.75;5.88;;;;;;;8.37;69.30;100808.94;4997134;28;20059;-91
2022/11/22 08:51:02;;;;;;;7.95;3.95;;;;;;;8.20;67.79;100782.00;4992423;28;20479;-85
2022/11/22 08:53:31;;;;;;;11.40;4.47;;;;;;;8.42;67.47;100813.03;4994827;28;20026;-80
2022/11/22 08:55:58;;;;;;;8.55;4.28;;;;;;;8.44;67.90;100803.50;5004329;28;20033;-82
2022/11/22 08:58:23;;;;;;;5.43;3.28;;;;;;;8.48;67.63;100796.50;5009760;28;20022;-80
2022/11/22 09:00:49;;;;;;;7.43;3.92;;;;;;;8.43;66.18;100782.94;5011025;28;20542;-82
2022/11/22 09:03:14;;;;;;;6.57;4.40;;;;;;;8.41;66.95;100775.25;5006785;28;20037;-84
2022/11/22 09:05:40;;;;;;;7.82;3.13;;;;;;;8.57;65.66;100798.72;5008940;28;20423;-81
2022/11/22 09:08:05;;;;;;;3.50;2.65;;;;;;;8.38;65.30;100777.97;4988826;28;20033;-82
2022/11/22 09:10:31;;;;;;;3.03;2.00;;;;;;;8.54;66.04;100801.41;5005477;28;20026;-80
2022/11/22 09:12:57;;;;;;;5.55;2.10;;;;;;;8.74;65.37;100806.66;5009620;28;20062;-94
2022/11/22 09:15:22;;;;;;;4.28;2.55;;;;;;;8.84;64.46;100804.56;4979781;28;20030;-89
2022/11/22 09:17:48;;;;;;;2.97;2.47;;;;;;;9.08;65.75;100802.78;5009961;28;20415;-86
2022/11/22 09:20:13;;;;;;;7.43;3.63;;;;;;;9.15;64.26;100783.56;4992750;28;20498;-87
2022/11/22 09:22:39;;;;;;;3.63;3.03;;;;;;;9.23;63.57;100781.47;4994189;28;20040;-85
2022/11/22 09:25:05;;;;;;;3.67;2.42;;;;;;;9.20;64.41;100784.19;4990431;28;20508;-84
2022/11/22 09:27:31;;;;;;;5.85;2.38;;;;;;;9.09;64.00;100769.16;4993727;28;20466;-86
2022/11/22 09:29:57;;;;;;;6.75;2.78;;;;;;;9.29;64.39;100783.81;4989194;28;20511;-90
2022/11/22 09:32:22;;;;;;;6.28;2.33;;;;;;;9.35;64.24;100785.34;4993011;28;20026;-89
2022/11/22 09:34:48;;;;;;;5.18;2.13;;;;;;;9.33;64.61;100798.28;5010439;28;20036;-89
2022/11/22 09:37:17;;;;;;;5.95;3.35;;;;;;;9.29;64.92;100780.41;5011609;28;20034;-89
2022/11/22 09:39:43;;;;;;;4.85;3.53;;;;;;;9.25;65.08;100778.88;4994568;28;20022;-86
2022/11/22 09:42:21;;;;;;;3.13;2.30;;;;;;;9.24;64.92;100788.31;4990827;28;20037;-84
2022/11/22 09:45:08;;;;;;;3.95;2.95;;;;;;;9.25;65.64;100779.69;4989298;28;20050;-85
2022/11/22 09:47:39;;;;;;;3.80;2.28;;;;;;;9.39;64.60;100766.22;5008293;28;20467;-89
2022/11/22 09:50:22;;;;;;;7.60;3.55;;;;;;;9.40;65.17;100732.56;5009449;28;20484;-90
2022/11/22 09:52:55;;;;;;;5.20;3.60;;;;;;;9.54;65.25;100744.06;4990007;28;20038;-83
2022/11/22 09:55:26;;;;;;;3.20;1.95;;;;;;;9.52;64.69;100733.78;4987800;28;20121;-84
2022/11/22 09:58:15;;;;;;;5.65;2.47;;;;;;;9.62;65.11;100716.16;5025441;28;20088;-86
2022/11/22 10:00:42;;;;;;;3.67;2.58;;;;;;;9.61;64.40;100709.31;5006376;28;20120;-89
2022/11/22 10:03:10;;;;;;;9.15;3.20;;;;;;;9.75;64.11;100714.72;4992498;28;20132;-86
2022/11/22 10:05:50;;;;;;;13.18;3.00;;;;;;;9.67;64.48;100711.66;5024222;28;20033;-91
2022/11/22 10:08:54;;;;;;;6.90;3.40;;;;;;;9.74;64.01;100716.47;4987970;28;20026;-84
2022/11/22 10:11:34;;;;;;;4.80;2.38;;;;;;;9.70;63.43;100721.84;5044166;28;20540;-82
2022/11/22 10:14:08;;;;;;;10.55;4.05;;;;;;;9.59;63.45;100699.06;5009623;28;20070;-80
2022/11/22 10:16:50;;;;;;;7.03;3.28;;;;;;;9.69;62.74;100707.25;4981332;28;20428;-80
2022/11/22 10:19:28;;;;;;;5.03;3.30;;;;;;;9.80;63.08;100712.78;4998739;28;20451;-91
2022/11/22 10:21:54;;;;;;;6.13;3.67;;;;;;;9.89;63.82;100707.19;4986700;28;20873;-84
2022/11/22 10:24:20;;;;;;;4.07;2.35;;;;;;;9.98;62.77;100705.94;5006554;28;20033;-81
2022/11/22 10:26:46;;;;;;;17.63;8.48;;;;;;;10.03;62.34;100707.44;4992044;28;20030;-82
2022/11/22 10:29:26;;;;;;;7.38;3.63;;;;;;;9.85;62.64;100682.41;4992198;28;20446;-82
2022/11/22 10:32:28;;;;;;;4.10;2.45;;;;;;;9.93;63.31;100689.78;5008349;28;20850;-81
2022/11/22 10:34:56;;;;;;;7.25;2.88;;;;;;;10.07;64.13;100693.44;5009078;28;20032;-82
2022/11/22 10:37:52;;;;;;;4.20;2.40;;;;;;;10.10;63.28;100676.13;5010671;28;20041;-94
2022/11/22 10:40:39;;;;;;;2.88;2.15;;;;;;;10.18;63.43;100689.53;4992380;28;20033;-80
2022/11/22 10:43:10;;;;;;;6.00;3.00;;;;;;;10.07;63.72;100698.63;5008374;28;20041;-82
2022/11/22 10:45:59;;;;;;;10.95;3.13;;;;;;;10.16;64.41;100691.34;4988861;28;20073;-84
2022/11/22 10:48:31;;;;;;;4.00;2.70;;;;;;;10.18;64.06;100653.34;4992466;28;20060;-84
2022/11/22 10:51:18;;;;;;;6.78;3.10;;;;;;;10.40;63.68;100690.22;5009506;28;20025;-84
2022/11/22 10:53:59;;;;;;;4.80;3.97;;;;;;;10.49;63.00;100684.63;5004486;28;20034;-80
2022/11/22 10:56:39;;;;;;;2.85;1.92;;;;;;;10.50;62.94;100686.28;5009802;28;20037;-80
2022/11/22 10:59:24;;;;;;;4.10;2.83;;;;;;;10.50;62.90;100675.13;5008060;28;20022;-81
2022/11/22 11:02:10;;;;;;;3.70;2.38;;;;;;;10.53;62.38;100667.22;5002691;28;20883;-85
2022/11/22 11:04:37;;;;;;;4.82;2.67;;;;;;;10.49;62.44;100642.41;5009841;28;20057;-83
2022/11/22 11:07:04;;;;;;;3.95;2.95;;;;;;;10.60;62.66;100645.31;5001083;28;20040;-82
2022/11/22 11:09:41;;;;;;;4.10;2.28;;;;;;;10.45;63.12;100615.03;4996953;28;20026;-84
2022/11/22 11:12:35;;;;;;;9.23;5.57;;;;;;;10.69;62.74;100655.22;4996145;28;20511;-82
2022/11/22 11:15:06;;;;;;;6.25;4.63;;;;;;;10.61;63.14;100653.00;5013373;28;20026;-84
2022/11/22 11:17:34;;;;;;;6.65;4.00;;;;;;;10.62;63.52;100649.50;4997599;28;20117;-84
2022/11/22 11:20:02;;;;;;;6.50;3.88;;;;;;;10.48;63.49;100610.53;4995271;28;20029;-87
2022/11/22 11:22:29;;;;;;;6.53;3.67;;;;;;;10.69;63.36;100629.34;4996576;28;20117;-81
2022/11/22 11:24:55;;;;;;;8.07;4.45;;;;;;;10.57;63.19;100606.66;5012269;28;20434;-84
2022/11/22 11:27:20;;;;;;;3.85;3.40;;;;;;;10.53;62.29;100605.97;5001949;28;20029;-83
2022/11/22 11:29:46;;;;;;;3.97;2.47;;;;;;;10.60;62.42;100625.44;4996293;28;20057;-83
2022/11/22 11:32:19;;;;;;;2.97;2.15;;;;;;;10.48;62.58;100599.34;5028528;28;20080;-85
2022/11/22 11:35:12;;;;;;;4.93;3.00;;;;;;;10.57;62.23;100599.72;4995946;28;20050;-86
2022/11/22 11:37:37;;;;;;;;;;;;;;;10.51;63.14;100609.53;4997951;28;20124;-80
2022/11/22 11:40:25;;;;;;;4.65;3.22;;;;;;;10.38;64.16;100601.53;5011740;28;20004;-85
2022/11/22 11:43:12;;;;;;;5.65;2.88;;;;;;;10.43;64.10;100596.16;4981246;28;20022;-83
2022/11/22 11:45:38;;;;;;;7.25;3.58;;;;;;;10.46;63.99;100593.41;4991327;28;20575;-83
2022/11/22 11:48:04;;;;;;;3.38;2.45;;;;;;;10.58;63.48;100603.16;5012699;28;20141;-82
2022/11/22 11:50:30;;;;;;;5.30;3.30;;;;;;;10.27;63.80;100557.28;5028039;28;20412;-82